Time;durP1;ratioP1;P1;durP2;ratioP2;P2;SDS_P1;SDS_P2;PMS_P1;PMS_P2;Temp;Humidity;BMP_temperature;BMP_pressure;BME280_temperature;BME280_humidity;BME280_pressure;Samples;Min_cycle;Max_cycle;Signal;HPM_P1;HPM_P2
2023/09/01 00:00:29;;;;;;;12.17;4.80;;;;;;;12.13;100.00;101094.81;5031636;28;20029;-90
2023/09/01 00:02:54;;;;;;;15.17;4.70;;;;;;;12.08;100.00;101086.72;5034549;28;20029;-90
2023/09/01 00:05:19;;;;;;;9.77;4.70;;;;;;;12.04;100.00;101073.00;5034212;28;20025;-89
2023/09/01 00:07:45;;;;;;;12.77;4.77;;;;;;;11.98;100.00;101071.31;5032348;28;20036;-89
2023/09/01 00:10:10;;;;;;;12.10;4.60;;;;;;;11.97;100.00;101075.91;5032793;28;20469;-89
2023/09/01 00:12:36;;;;;;;15.20;4.40;;;;;;;11.84;100.00;101054.06;5032625;28;20025;-89
2023/09/01 00:15:03;;;;;;;16.93;5.00;;;;;;;11.84;100.00;101054.91;5031356;28;20468;-89
2023/09/01 00:17:28;;;;;;;10.15;4.40;;;;;;;11.76;100.00;101052.69;5030789;28;20033;-89
2023/09/01 00:19:53;;;;;;;7.67;4.73;;;;;;;11.75;100.00;101057.28;5031036;28;20025;-89
2023/09/01 00:22:18;;;;;;;11.13;4.83;;;;;;;11.77;100.00;101065.88;5032399;28;20087;-89
2023/09/01 00:24:44;;;;;;;12.97;5.30;;;;;;;11.61;100.00;101059.59;5030726;28;20056;-89
2023/09/01 00:27:10;;;;;;;10.32;4.85;;;;;;;11.68;100.00;101063.94;5032420;28;20526;-89
2023/09/01 00:29:35;;;;;;;12.50;4.50;;;;;;;11.65;100.00;101068.75;5031912;28;20075;-89
2023/09/01 00:32:01;;;;;;;12.33;4.97;;;;;;;11.62;100.00;101047.78;5031972;28;20033;-89
2023/09/01 00:34:30;;;;;;;14.30;5.53;;;;;;;11.73;100.00;101058.56;5029735;28;20103;-90
2023/09/01 00:36:55;;;;;;;18.75;5.45;;;;;;;11.75;100.00;101051.06;5030297;28;20362;-89
2023/09/01 00:39:20;;;;;;;11.80;5.30;;;;;;;11.85;100.00;101053.84;5035177;28;20044;-89
2023/09/01 00:41:46;;;;;;;15.17;5.53;;;;;;;11.84;100.00;101048.72;5031341;28;20056;-89
2023/09/01 00:44:14;;;;;;;13.13;5.23;;;;;;;11.81;100.00;101042.78;5032223;28;20038;-90
2023/09/01 00:46:43;;;;;;;15.25;5.68;;;;;;;11.82;100.00;101036.34;5034974;28;20033;-89
2023/09/01 00:49:10;;;;;;;10.15;4.75;;;;;;;11.86;100.00;101042.03;5033255;28;20029;-90
2023/09/01 00:51:35;;;;;;;10.85;5.60;;;;;;;11.92;100.00;101040.97;5032967;28;20481;-89
2023/09/01 00:54:02;;;;;;;14.23;5.00;;;;;;;11.90;100.00;101032.34;5041180;28;20013;-88
2023/09/01 00:56:27;;;;;;;15.10;5.82;;;;;;;11.87;100.00;101015.97;5055804;28;20026;-89
2023/09/01 00:58:53;;;;;;;13.85;5.35;;;;;;;11.81;100.00;101017.81;5054469;28;20044;-89
2023/09/01 01:01:18;;;;;;;11.60;5.00;;;;;;;11.91;100.00;101030.50;5054737;28;20025;-90
2023/09/01 01:03:44;;;;;;;14.97;5.70;;;;;;;11.90;100.00;101026.19;5055992;28;20018;-89
2023/09/01 01:06:15;;;;;;;13.70;5.57;;;;;;;11.95;100.00;101035.06;5056372;28;20031;-90
2023/09/01 01:08:46;;;;;;;11.70;5.70;;;;;;;11.95;100.00;101039.66;5054361;28;20064;-89
2023/09/01 01:11:20;;;;;;;12.93;5.88;;;;;;;11.93;100.00;101044.47;5031728;28;20021;-90
2023/09/01 01:13:50;;;;;;;12.52;5.63;;;;;;;11.94;100.00;101051.47;5030437;28;20386;-90
2023/09/01 01:16:17;;;;;;;12.32;5.63;;;;;;;11.97;100.00;101053.59;5029067;28;20034;-89
2023/09/01 01:18:44;;;;;;;15.85;6.40;;;;;;;11.90;100.00;101048.47;5029764;28;20030;-89
2023/09/01 01:21:16;;;;;;;19.38;6.07;;;;;;;12.01;100.00;101056.63;5030263;28;20025;-89
2023/09/01 01:23:42;;;;;;;15.33;5.60;;;;;;;12.01;100.00;101062.78;5030700;28;20041;-91
2023/09/01 01:26:12;;;;;;;13.82;5.97;;;;;;;11.95;100.00;101034.28;5031618;28;20025;-88
2023/09/01 01:28:38;;;;;;;9.32;5.47;;;;;;;12.01;100.00;101041.28;5031345;28;20028;-88
2023/09/01 01:31:04;;;;;;;15.55;5.45;;;;;;;12.06;100.00;101046.69;5030985;28;20025;-91
2023/09/01 01:33:52;;;;;;;12.40;6.47;;;;;;;12.06;100.00;101041.31;5024077;28;20029;-90
2023/09/01 01:36:43;;;;;;;10.80;5.47;;;;;;;12.07;100.00;101045.63;5032531;28;20099;-90
2023/09/01 01:39:15;;;;;;;13.93;5.67;;;;;;;12.01;100.00;101043.97;5054491;28;20292;-90
2023/09/01 01:41:59;;;;;;;13.55;5.63;;;;;;;11.94;100.00;101040.72;5050404;28;20010;-90
2023/09/01 01:44:27;;;;;;;13.93;6.25;;;;;;;11.95;100.00;101053.06;5055185;28;20029;-89
2023/09/01 01:46:53;;;;;;;10.48;5.95;;;;;;;11.93;100.00;101055.22;5055270;28;20021;-89
2023/09/01 01:49:19;;;;;;;10.02;5.85;;;;;;;11.94;100.00;101057.63;5054251;28;20081;-90
2023/09/01 01:51:45;;;;;;;16.73;6.82;;;;;;;11.96;100.00;101047.44;5053846;28;20128;-88
2023/09/01 01:54:11;;;;;;;10.30;6.07;;;;;;;11.95;100.00;101048.50;5030783;28;20021;-89
2023/09/01 01:56:37;;;;;;;14.88;6.03;;;;;;;12.08;100.00;101067.91;5029762;28;20523;-89
2023/09/01 01:59:04;;;;;;;11.80;5.30;;;;;;;12.12;100.00;101071.69;5030001;28;20029;-89
2023/09/01 02:01:33;;;;;;;14.40;6.43;;;;;;;12.10;100.00;101052.34;5032722;28;20083;-90
2023/09/01 02:03:58;;;;;;;13.25;6.18;;;;;;;12.12;100.00;101044.84;5029473;28;20120;-89
2023/09/01 02:06:24;;;;;;;13.50;6.17;;;;;;;12.18;100.00;101049.16;5032616;28;20119;-89
2023/09/01 02:08:49;;;;;;;12.57;6.28;;;;;;;12.09;100.00;101038.13;5030749;28;20350;-89
2023/09/01 02:11:14;;;;;;;14.80;6.50;;;;;;;12.06;100.00;101035.13;5029802;28;20021;-89
2023/09/01 02:13:41;;;;;;;14.60;6.33;;;;;;;12.09;100.00;101037.28;5030558;28;20029;-89
2023/09/01 02:16:06;;;;;;;15.25;6.22;;;;;;;12.06;100.00;101027.91;5030275;28;20037;-90
2023/09/01 02:18:32;;;;;;;14.90;6.53;;;;;;;12.06;100.00;101022.53;5021996;28;20037;-89
2023/09/01 02:20:57;;;;;;;18.37;7.03;;;;;;;12.13;100.00;101035.72;5024977;28;20303;-89
2023/09/01 02:23:24;;;;;;;12.55;6.57;;;;;;;12.06;100.00;101029.75;5028781;28;20389;-89
2023/09/01 02:25:49;;;;;;;14.83;6.57;;;;;;;12.19;100.00;101045.41;5026924;28;20025;-89
2023/09/01 02:28:15;;;;;;;13.27;6.27;;;;;;;12.20;100.00;101047.03;5029884;28;20295;-89
2023/09/01 02:30:40;;;;;;;11.80;6.10;;;;;;;12.18;100.00;101035.75;5030521;28;20029;-89
2023/09/01 02:33:06;;;;;;;15.18;6.63;;;;;;;12.15;100.00;101024.69;5028819;28;20037;-90
2023/09/01 02:35:31;;;;;;;11.00;6.60;;;;;;;12.31;100.00;101036.31;5030433;28;20611;-89
2023/09/01 02:37:57;;;;;;;14.17;6.63;;;;;;;12.31;100.00;101033.63;5028847;28;20513;-89
2023/09/01 02:40:24;;;;;;;14.75;7.35;;;;;;;12.30;100.00;101035.50;5028154;28;20021;-89
2023/09/01 02:42:51;;;;;;;13.03;6.70;;;;;;;12.33;100.00;101034.16;5029299;28;20491;-89
2023/09/01 02:45:18;;;;;;;18.03;6.93;;;;;;;12.29;100.00;101033.06;5030685;28;20367;-90
2023/09/01 02:47:43;;;;;;;13.02;6.57;;;;;;;12.20;100.00;101022.84;5030954;28;20481;-89
2023/09/01 02:50:09;;;;;;;12.73;6.35;;;;;;;12.21;100.00;101016.41;5030085;28;20040;-89
2023/09/01 02:52:35;;;;;;;12.53;6.40;;;;;;;12.13;100.00;101011.53;5031337;28;20097;-89
2023/09/01 02:55:01;;;;;;;15.20;7.40;;;;;;;12.18;100.00;101027.69;5029215;28;20700;-90
2023/09/01 02:57:26;;;;;;;11.90;7.10;;;;;;;12.16;100.00;101027.13;5028551;28;20045;-89
2023/09/01 02:59:58;;;;;;;12.63;6.82;;;;;;;12.15;100.00;101025.50;5031910;28;20052;-90
2023/09/01 03:02:24;;;;;;;14.20;7.10;;;;;;;12.06;100.00;101014.47;5022350;28;20037;-89
2023/09/01 03:04:52;;;;;;;15.80;7.10;;;;;;;12.09;100.00;101018.50;5033989;28;20315;-89
2023/09/01 03:07:17;;;;;;;14.25;6.82;;;;;;;12.17;100.00;101026.06;5031640;28;20017;-89
2023/09/01 03:09:42;;;;;;;18.40;7.33;;;;;;;12.21;100.00;101032.53;5032391;28;20036;-89
2023/09/01 03:12:08;;;;;;;17.70;7.13;;;;;;;12.26;100.00;101031.72;5030572;28;20416;-89
2023/09/01 03:14:33;;;;;;;15.10;7.15;;;;;;;12.30;100.00;101026.63;5031667;28;20025;-89
2023/09/01 03:16:59;;;;;;;13.00;7.20;;;;;;;12.29;100.00;101025.84;5031872;28;20100;-89
2023/09/01 03:19:24;;;;;;;14.53;6.70;;;;;;;12.20;100.00;101017.47;5031835;28;20033;-89
2023/09/01 03:21:49;;;;;;;15.73;7.90;;;;;;;12.32;100.00;101019.94;5035589;28;20026;-89
2023/09/01 03:24:15;;;;;;;16.33;8.07;;;;;;;12.34;100.00;101025.03;5030565;28;20108;-89
2023/09/01 03:26:40;;;;;;;18.53;7.30;;;;;;;12.29;100.00;101012.41;5028447;28;20121;-89
2023/09/01 03:29:05;;;;;;;17.40;7.53;;;;;;;12.36;100.00;101018.31;5035627;28;20378;-89
2023/09/01 03:31:33;;;;;;;16.47;7.57;;;;;;;12.38;100.00;101026.13;5032078;28;20467;-89
2023/09/01 03:33:59;;;;;;;13.82;7.72;;;;;;;12.46;100.00;101030.97;5031354;28;20021;-88
2023/09/01 03:36:25;;;;;;;15.03;7.13;;;;;;;12.44;100.00;101025.03;5024447;28;20029;-89
2023/09/01 03:38:50;;;;;;;17.52;7.38;;;;;;;12.45;100.00;101010.53;5031580;28;20473;-90
2023/09/01 03:41:15;;;;;;;14.10;7.70;;;;;;;12.47;100.00;101011.09;5031904;28;20029;-90
2023/09/01 03:43:40;;;;;;;15.70;7.37;;;;;;;12.50;100.00;101015.94;5028814;28;20046;-90
2023/09/01 03:46:06;;;;;;;15.63;7.03;;;;;;;12.45;100.00;100993.63;5029868;28;20109;-90
2023/09/01 03:48:32;;;;;;;15.90;7.53;;;;;;;12.54;100.00;101011.66;5029569;28;20026;-90
2023/09/01 03:51:09;;;;;;;14.50;7.30;;;;;;;12.57;100.00;101013.81;5030091;28;20029;-90
2023/09/01 03:53:35;;;;;;;12.65;7.32;;;;;;;12.59;100.00;101026.19;5031786;28;20033;-90
2023/09/01 03:56:06;;;;;;;14.07;6.60;;;;;;;12.52;100.00;101004.91;5032344;28;20029;-90
2023/09/01 03:58:31;;;;;;;10.65;7.07;;;;;;;12.48;100.00;100993.09;5024721;28;20021;-90
2023/09/01 04:00:56;;;;;;;13.00;7.00;;;;;;;12.61;100.00;101014.06;5031898;28;20040;-90
2023/09/01 04:03:22;;;;;;;12.70;7.03;;;;;;;12.63;100.00;101005.72;5031819;28;20018;-89
2023/09/01 04:05:47;;;;;;;14.00;7.70;;;;;;;12.65;100.00;101009.78;5023349;28;20041;-89
2023/09/01 04:08:12;;;;;;;13.60;7.63;;;;;;;12.67;100.00;101006.81;5032704;28;20060;-89
2023/09/01 04:10:39;;;;;;;14.90;7.33;;;;;;;12.62;100.00;100993.34;5031373;28;20424;-88
2023/09/01 04:13:04;;;;;;;12.15;6.85;;;;;;;12.68;100.00;100995.00;5031889;28;20026;-88
2023/09/01 04:15:29;;;;;;;17.43;7.97;;;;;;;12.64;100.00;100985.84;5029008;28;20029;-88
2023/09/01 04:17:54;;;;;;;16.67;7.27;;;;;;;12.59;100.00;100988.53;5030571;28;20056;-88
2023/09/01 04:20:20;;;;;;;15.90;7.40;;;;;;;12.70;100.00;101007.06;5030660;28;20467;-88
2023/09/01 04:22:46;;;;;;;13.48;7.40;;;;;;;12.67;100.00;100996.88;5030706;28;20021;-88
2023/09/01 04:25:11;;;;;;;12.60;7.53;;;;;;;12.72;100.00;100998.75;5031416;28;20500;-88
2023/09/01 04:27:36;;;;;;;12.53;6.80;;;;;;;12.73;100.00;101006.53;5031420;28;20033;-88
2023/09/01 04:30:03;;;;;;;16.23;7.05;;;;;;;12.79;100.00;101003.88;5031396;28;20017;-88
2023/09/01 04:32:28;;;;;;;13.50;7.20;;;;;;;12.79;100.00;101001.19;5030692;28;20018;-88
2023/09/01 04:34:53;;;;;;;11.23;6.35;;;;;;;12.80;100.00;101002.78;5030335;28;20460;-89
2023/09/01 04:37:19;;;;;;;20.33;7.20;;;;;;;12.75;100.00;100992.84;5030416;28;20036;-89
2023/09/01 04:39:44;;;;;;;11.80;7.27;;;;;;;12.82;100.00;101001.44;5026998;28;20033;-88
2023/09/01 04:42:09;;;;;;;12.73;7.13;;;;;;;12.77;100.00;100987.19;5031901;28;20064;-88
2023/09/01 04:44:35;;;;;;;14.43;7.43;;;;;;;12.78;100.00;101002.25;5031672;28;20072;-89
2023/09/01 04:47:00;;;;;;;12.80;6.23;;;;;;;12.79;100.00;101009.25;5025627;28;20113;-89
2023/09/01 04:49:27;;;;;;;9.88;6.40;;;;;;;12.84;100.00;101010.06;5031561;28;20021;-89
2023/09/01 04:51:52;;;;;;;15.00;6.70;;;;;;;12.86;100.00;101005.22;5028310;28;20026;-89
2023/09/01 04:54:17;;;;;;;14.20;6.70;;;;;;;12.82;100.00;100993.38;5028229;28;20028;-90
2023/09/01 04:56:42;;;;;;;12.10;6.87;;;;;;;12.90;100.00;101010.84;5029973;28;20036;-89
2023/09/01 04:59:08;;;;;;;9.67;6.60;;;;;;;12.80;100.00;100995.53;5015888;28;20033;-88
2023/09/01 05:01:33;;;;;;;11.27;7.23;;;;;;;12.93;100.00;101014.91;5030470;28;20069;-89
2023/09/01 05:03:59;;;;;;;14.50;6.83;;;;;;;12.93;100.00;101007.63;5028839;28;20045;-91
2023/09/01 05:06:25;;;;;;;15.50;7.22;;;;;;;12.95;100.00;101010.88;5028938;28;20462;-89
2023/09/01 05:08:52;;;;;;;13.63;7.30;;;;;;;12.99;100.00;101014.63;5030249;28;20022;-90
2023/09/01 05:11:17;;;;;;;18.77;8.23;;;;;;;12.98;100.00;100996.06;5030035;28;20030;-90
2023/09/01 05:13:42;;;;;;;12.93;7.22;;;;;;;13.05;100.00;101003.88;5028113;28;20083;-93
2023/09/01 05:16:09;;;;;;;15.17;7.13;;;;;;;13.10;100.00;101015.44;5021176;28;20025;-90
2023/09/01 05:18:35;;;;;;;11.38;7.00;;;;;;;13.08;100.00;101000.63;5027692;28;20026;-90
2023/09/01 05:21:00;;;;;;;11.17;6.83;;;;;;;13.17;100.00;101015.16;5026225;28;20628;-88
2023/09/01 05:23:28;;;;;;;15.60;7.27;;;;;;;13.08;100.00;100990.69;5030444;28;20044;-88
2023/09/01 05:25:53;;;;;;;12.00;6.93;;;;;;;13.17;100.00;100993.63;5028699;28;20500;-88
2023/09/01 05:28:19;;;;;;;13.03;7.40;;;;;;;13.18;100.00;100995.25;5025573;28;20033;-88
2023/09/01 05:30:44;;;;;;;13.23;7.20;;;;;;;13.28;100.00;101005.19;5030078;28;20018;-90
2023/09/01 05:33:09;;;;;;;12.50;7.20;;;;;;;13.29;100.00;101012.19;5027484;28;20532;-89
2023/09/01 05:35:35;;;;;;;10.20;7.10;;;;;;;13.32;100.00;101007.06;5031041;28;20018;-91
2023/09/01 05:38:00;;;;;;;14.17;7.23;;;;;;;13.43;100.00;101024.03;5032764;28;20032;-91
2023/09/01 05:40:25;;;;;;;12.40;7.17;;;;;;;13.45;100.00;101019.19;5024091;28;20371;-91
2023/09/01 05:42:50;;;;;;;11.70;6.80;;;;;;;13.46;100.00;101015.41;5030632;28;20022;-91
2023/09/01 05:45:17;;;;;;;11.13;6.87;;;;;;;13.45;100.00;101010.28;5030456;28;20055;-91
2023/09/01 05:47:43;;;;;;;11.23;6.70;;;;;;;13.51;100.00;101013.81;5031347;28;20052;-91
2023/09/01 05:50:09;;;;;;;11.05;7.13;;;;;;;13.56;100.00;101021.84;5031519;28;20430;-92
2023/09/01 05:52:34;;;;;;;12.20;6.83;;;;;;;13.57;100.00;101018.91;5031362;28;20052;-90
2023/09/01 05:54:59;;;;;;;11.17;7.40;;;;;;;13.67;100.00;101019.94;5032026;28;20109;-90
2023/09/01 05:57:24;;;;;;;14.80;7.43;;;;;;;13.71;100.00;101012.94;5025949;28;20435;-88
2023/09/01 05:59:50;;;;;;;13.37;7.53;;;;;;;13.71;100.00;101010.25;5023373;28;20044;-93
2023/09/01 06:02:15;;;;;;;15.13;7.97;;;;;;;13.83;100.00;101013.41;5030747;28;20300;-91
2023/09/01 06:04:40;;;;;;;10.27;7.13;;;;;;;13.92;100.00;101017.16;5031013;28;20524;-93
2023/09/01 06:07:08;;;;;;;12.40;7.23;;;;;;;13.96;100.00;100998.56;5026787;28;20082;-91
2023/09/01 06:09:34;;;;;;;13.32;7.32;;;;;;;14.08;100.00;101007.09;5034674;28;20029;-90
2023/09/01 06:12:00;;;;;;;12.55;6.65;;;;;;;14.24;100.00;101021.31;5024459;28;20021;-89
2023/09/01 06:14:25;;;;;;;13.00;6.90;;;;;;;14.21;100.00;101005.69;5028644;28;20512;-91
2023/09/01 06:16:51;;;;;;;12.37;6.97;;;;;;;14.28;100.00;101013.47;5025474;28;20112;-89
2023/09/01 06:19:17;;;;;;;10.52;6.70;;;;;;;14.28;100.00;101021.56;5030693;28;20480;-89
2023/09/01 06:21:42;;;;;;;12.57;7.10;;;;;;;14.23;100.00;101003.53;5024924;28;20025;-90
2023/09/01 06:24:07;;;;;;;10.95;6.82;;;;;;;14.29;100.00;101006.22;5030354;28;20025;-90
2023/09/01 06:26:33;;;;;;;10.87;7.43;;;;;;;14.33;100.00;101029.63;5030001;28;20418;-89
2023/09/01 06:28:58;;;;;;;15.33;7.07;;;;;;;14.34;100.00;101028.56;5028345;28;20036;-90
2023/09/01 06:31:24;;;;;;;10.47;6.87;;;;;;;14.35;100.00;101032.84;5028052;28;20033;-89
2023/09/01 06:33:49;;;;;;;10.13;6.85;;;;;;;14.33;100.00;101031.53;5048170;28;20051;-90
2023/09/01 06:36:15;;;;;;;11.70;7.47;;;;;;;14.35;100.00;101032.84;5049091;28;20084;-88
2023/09/01 06:38:41;;;;;;;16.30;8.13;;;;;;;14.27;100.00;101033.44;5029423;28;20095;-90
2023/09/01 06:41:07;;;;;;;13.65;7.60;;;;;;;14.18;100.00;101029.72;5035574;28;20473;-88
2023/09/01 06:43:32;;;;;;;14.13;8.07;;;;;;;14.07;100.00;101020.88;5034233;28;20120;-89
2023/09/01 06:45:58;;;;;;;14.97;8.23;;;;;;;14.10;100.00;101039.19;5031574;28;20108;-91
2023/09/01 06:48:24;;;;;;;17.38;8.57;;;;;;;14.01;100.00;101022.78;5030005;28;20381;-91
2023/09/01 06:50:49;;;;;;;17.05;8.15;;;;;;;14.04;100.00;101027.63;5042340;28;20112;-91
2023/09/01 06:53:15;;;;;;;14.73;8.40;;;;;;;14.09;100.00;101046.44;5028223;28;20122;-90
2023/09/01 06:55:40;;;;;;;18.53;8.77;;;;;;;14.09;100.00;101027.59;5033278;28;20033;-91
2023/09/01 06:58:05;;;;;;;19.37;9.00;;;;;;;14.14;100.00;101028.66;5035467;28;20033;-91
2023/09/01 07:00:31;;;;;;;16.63;9.10;;;;;;;14.18;100.00;101035.09;5034917;28;20068;-92
2023/09/01 07:02:57;;;;;;;17.58;9.38;;;;;;;14.17;100.00;101030.81;5033014;28;20454;-92
2023/09/01 07:05:23;;;;;;;13.10;8.10;;;;;;;14.17;100.00;101033.50;5030076;28;20029;-93
2023/09/01 07:07:50;;;;;;;16.43;9.70;;;;;;;14.16;100.00;101024.59;5034729;28;20299;-93
2023/09/01 07:10:16;;;;;;;14.20;9.25;;;;;;;14.17;100.00;101020.81;5041397;28;20029;-92
2023/09/01 07:12:41;;;;;;;14.45;9.15;;;;;;;14.19;100.00;101023.25;5040830;28;20052;-95
2023/09/01 07:15:08;;;;;;;16.03;9.67;;;;;;;14.19;100.00;101009.78;5040387;28;20559;-94
2023/09/01 07:17:33;;;;;;;15.77;9.65;;;;;;;14.25;100.00;101011.34;5035976;28;20128;-93
2023/09/01 07:19:59;;;;;;;16.52;9.75;;;;;;;14.28;100.00;101010.78;5035456;28;20592;-96
2023/09/01 07:22:25;;;;;;;15.33;9.20;;;;;;;14.27;100.00;101006.47;5042426;28;20030;-93
2023/09/01 07:24:51;;;;;;;16.88;9.57;;;;;;;14.32;100.00;101011.84;5054684;28;20033;-88
2023/09/01 07:27:16;;;;;;;17.50;9.37;;;;;;;14.31;100.00;101012.94;5036509;28;20028;-95
2023/09/01 07:29:41;;;;;;;18.43;10.03;;;;;;;14.27;100.00;101013.78;5040598;28;20030;-92
2023/09/01 07:32:07;;;;;;;18.63;10.03;;;;;;;14.27;100.00;101009.16;5036877;28;20021;-94
2023/09/01 07:34:33;;;;;;;19.27;10.77;;;;;;;14.22;100.00;101007.31;5055192;28;20060;-95
2023/09/01 07:36:59;;;;;;;16.03;10.17;;;;;;;14.28;100.00;101010.78;5039871;28;20033;-96
2023/09/01 07:39:24;;;;;;;20.70;11.13;;;;;;;14.24;100.00;101010.53;5037056;28;20712;-94
2023/09/01 07:41:49;;;;;;;17.57;10.57;;;;;;;14.23;100.00;101003.53;5036025;28;20038;-93
2023/09/01 07:44:16;;;;;;;22.00;11.00;;;;;;;14.24;100.00;101004.38;5039058;28;20051;-94
2023/09/01 07:46:42;;;;;;;18.98;11.07;;;;;;;14.24;100.00;101007.06;5033403;28;20049;-94
2023/09/01 07:49:12;;;;;;;17.23;11.55;;;;;;;14.28;100.00;101010.78;5041712;28;20029;-94
2023/09/01 07:51:38;;;;;;;20.50;11.93;;;;;;;14.24;100.00;101004.38;5041975;28;20056;-94
2023/09/01 07:54:04;;;;;;;20.70;12.43;;;;;;;14.31;100.00;101018.31;5039543;28;20087;-91
2023/09/01 07:56:32;;;;;;;24.30;12.53;;;;;;;14.33;100.00;101016.16;5034452;28;20316;-93
2023/09/01 07:58:57;;;;;;;19.50;12.35;;;;;;;14.32;100.00;101009.16;5034608;28;20123;-92
2023/09/01 08:01:22;;;;;;;17.30;12.45;;;;;;;14.34;100.00;101014.25;5032182;28;20469;-93
2023/09/01 08:03:48;;;;;;;17.93;11.23;;;;;;;14.32;100.00;101014.53;5034067;28;20029;-94
2023/09/01 08:06:13;;;;;;;19.90;12.27;;;;;;;14.29;100.00;101009.69;5035102;28;20025;-93
2023/09/01 08:08:38;;;;;;;18.40;11.37;;;;;;;14.29;100.00;101009.69;5034428;28;20033;-93
2023/09/01 08:11:05;;;;;;;17.13;12.07;;;;;;;14.42;100.00;101026.38;5034110;28;20059;-93
2023/09/01 08:13:30;;;;;;;19.85;11.93;;;;;;;14.41;100.00;101017.44;5032876;28;20029;-93
2023/09/01 08:15:56;;;;;;;25.87;12.17;;;;;;;14.44;100.00;101032.25;5034982;28;20369;-93
2023/09/01 08:18:21;;;;;;;20.38;13.48;;;;;;;14.37;100.00;101027.19;5036454;28;20100;-94
2023/09/01 08:20:47;;;;;;;20.13;12.87;;;;;;;14.42;100.00;101026.38;5038784;28;20031;-95
2023/09/01 08:23:13;;;;;;;16.53;12.67;;;;;;;14.49;100.00;101037.63;5031435;28;20452;-95
2023/09/01 08:25:38;;;;;;;18.63;11.27;;;;;;;14.49;100.00;101041.16;5034639;28;20703;-96
2023/09/01 08:28:05;;;;;;;16.30;11.70;;;;;;;14.59;100.00;101048.38;5024557;28;20029;-95
2023/09/01 08:30:30;;;;;;;19.17;12.30;;;;;;;14.53;100.00;101033.28;5037508;28;20052;-95
2023/09/01 08:32:57;;;;;;;20.85;13.65;;;;;;;14.60;100.00;101049.97;5041218;28;20461;-94
2023/09/01 08:35:22;;;;;;;17.40;13.20;;;;;;;14.62;100.00;101042.38;5042903;28;20029;-94
2023/09/01 08:37:48;;;;;;;24.10;13.67;;;;;;;14.60;100.00;101035.69;5043643;28;20377;-96
2023/09/01 08:40:13;;;;;;;19.33;13.00;;;;;;;14.60;100.00;101041.88;5042778;28;20052;-94
2023/09/01 08:42:47;;;;;;;18.60;13.30;;;;;;;14.64;100.00;101050.22;5043877;28;20769;-95
2023/09/01 08:45:14;;;;;;;20.50;13.63;;;;;;;14.64;100.00;101048.31;5049846;28;20040;-95
2023/09/01 08:47:45;;;;;;;19.50;14.43;;;;;;;14.70;100.00;101057.19;5030502;28;20033;-96
2023/09/01 08:50:11;;;;;;;20.90;13.93;;;;;;;14.65;100.00;101060.72;5040539;28;20036;-96
2023/09/01 08:52:38;;;;;;;16.63;13.47;;;;;;;14.73;100.00;101069.34;5049941;28;20263;-96
2023/09/01 08:55:04;;;;;;;20.42;13.43;;;;;;;14.73;100.00;101072.03;5059260;28;20039;-96
2023/09/01 08:57:30;;;;;;;16.83;13.38;;;;;;;14.74;100.00;101071.75;5046591;28;20056;-96
2023/09/01 09:00:45;;;;;;;21.47;13.33;;;;;;;14.76;100.00;101074.19;5044977;28;20026;-96
2023/09/01 09:03:12;;;;;;;20.70;13.50;;;;;;;14.73;100.00;101070.13;5047658;28;20299;-96
2023/09/01 09:05:38;;;;;;;18.33;13.00;;;;;;;14.75;100.00;101067.16;5038332;28;20021;-85
2023/09/01 09:08:06;;;;;;;17.15;12.57;;;;;;;14.79;100.00;101079.03;5028132;28;20620;-85
2023/09/01 09:10:42;;;;;;;17.13;12.20;;;;;;;14.79;100.00;101082.50;5028760;28;20404;-85
2023/09/01 09:13:24;;;;;;;16.92;13.00;;;;;;;14.79;100.00;101084.41;5029465;28;20021;-85
2023/09/01 09:16:12;;;;;;;19.85;12.88;;;;;;;14.79;100.00;101076.31;5025090;28;20069;-84
2023/09/01 09:18:42;;;;;;;15.45;12.00;;;;;;;14.79;100.00;101074.41;5028152;28;20033;-84
2023/09/01 09:21:23;;;;;;;21.43;13.00;;;;;;;14.86;100.00;101076.00;5025771;28;20426;-84
2023/09/01 09:23:48;;;;;;;17.52;12.05;;;;;;;14.82;100.00;101078.44;5029789;28;20033;-84
2023/09/01 09:26:13;;;;;;;14.67;12.23;;;;;;;14.86;100.00;101079.50;5028939;28;20022;-85
2023/09/01 09:28:39;;;;;;;15.40;11.85;;;;;;;14.91;100.00;101081.34;5027298;28;20068;-87
2023/09/01 09:31:05;;;;;;;18.27;12.83;;;;;;;14.88;100.00;101073.84;5026752;28;20388;-86
2023/09/01 09:33:32;;;;;;;16.30;13.45;;;;;;;14.91;100.00;101082.16;5029819;28;20018;-85
2023/09/01 09:35:58;;;;;;;14.17;11.50;;;;;;;14.94;100.00;101084.31;5041506;28;20559;-86
2023/09/01 09:38:23;;;;;;;17.13;11.93;;;;;;;14.96;100.00;101075.91;5035621;28;20040;-85
2023/09/01 09:40:59;;;;;;;18.00;11.57;;;;;;;14.98;100.00;101082.63;5021267;28;20481;-95
2023/09/01 09:43:25;;;;;;;13.68;11.23;;;;;;;15.07;100.00;101092.84;5038665;28;20033;-96
2023/09/01 09:45:52;;;;;;;15.18;11.32;;;;;;;14.97;100.00;101086.41;5041415;28;20029;-96
2023/09/01 09:48:18;;;;;;;13.53;10.60;;;;;;;15.02;100.00;101087.47;5038794;28;20493;-96
2023/09/01 09:50:50;;;;;;;14.00;11.80;;;;;;;15.06;100.00;101091.22;5049169;28;20283;-96
2023/09/01 09:53:24;;;;;;;15.18;11.25;;;;;;;15.06;100.00;101083.13;5055771;28;20041;-96
2023/09/01 09:55:53;;;;;;;16.00;10.80;;;;;;;15.16;100.00;101091.13;5056822;28;20024;-96
2023/09/01 09:58:29;;;;;;;13.73;10.60;;;;;;;15.21;100.00;101085.69;5054514;28;20033;-96
2023/09/01 10:01:02;;;;;;;13.38;11.10;;;;;;;15.24;100.00;101087.84;5041807;28;20029;-96
2023/09/01 10:03:29;;;;;;;11.43;10.23;;;;;;;15.31;100.00;101078.63;5057803;28;20069;-96
2023/09/01 10:05:55;;;;;;;12.30;10.35;;;;;;;15.33;100.00;101081.84;5057221;28;20073;-96
2023/09/01 10:08:21;;;;;;;12.32;10.30;;;;;;;15.46;100.00;101081.19;5056327;28;20034;-96
2023/09/01 10:10:49;;;;;;;11.45;10.15;;;;;;;15.50;100.00;101084.09;5051842;28;20027;-96
2023/09/01 10:13:15;;;;;;;11.45;10.25;;;;;;;15.47;100.00;101082.78;5055914;28;20029;-96
2023/09/01 10:15:41;;;;;;;11.77;9.55;;;;;;;15.59;100.00;101080.50;5045485;28;20057;-96
2023/09/01 10:18:08;;;;;;;11.13;9.67;;;;;;;15.55;100.00;101079.47;5050917;28;20077;-96
2023/09/01 10:20:35;;;;;;;10.13;8.87;;;;;;;15.49;100.00;101077.91;5051965;28;20326;-96
2023/09/01 10:23:02;;;;;;;10.13;8.65;;;;;;;15.55;100.00;101087.56;5052745;28;20022;-96
2023/09/01 10:25:28;;;;;;;10.90;8.63;;;;;;;15.55;100.00;101082.16;5058371;28;20496;-95
2023/09/01 10:28:12;;;;;;;10.10;8.23;;;;;;;15.44;100.00;101075.25;5057414;28;20060;-96
2023/09/01 10:30:42;;;;;;;8.95;8.02;;;;;;;15.49;100.00;101083.31;5051314;28;20013;-94
2023/09/01 10:33:16;;;;;;;10.13;8.50;;;;;;;15.46;100.00;101083.88;5058985;28;20093;-96
2023/09/01 10:35:55;;;;;;;7.87;7.03;;;;;;;15.43;100.00;101082.53;5061388;28;20372;-96
2023/09/01 10:41:00;;;;;;;9.88;8.88;;;;;;;15.26;100.00;101039.78;5071641;22;20046;-96
2023/09/01 10:43:35;;;;;;;12.63;8.77;;;;;;;15.62;100.00;101089.13;5017531;28;20114;-94
2023/09/01 10:46:12;;;;;;;15.77;9.33;;;;;;;15.81;100.00;101084.59;5018294;28;20088;-94
2023/09/01 10:48:58;;;;;;;12.13;9.63;;;;;;;15.90;100.00;101088.31;5019405;28;20273;-95
2023/09/01 10:51:39;;;;;;;13.07;10.13;;;;;;;16.15;100.00;101085.63;5136671;22;20021;-96
2023/09/01 11:04:31;;;;;;;13.83;10.47;;;;;;;17.17;100.00;101104.22;5663488;22;20393;-95
2023/09/01 11:06:56;;;;;;;10.82;9.27;;;;;;;17.43;100.00;101105.69;4967797;28;20551;-95
2023/09/01 11:09:23;;;;;;;10.10;9.03;;;;;;;17.38;100.00;101072.16;4961563;28;20070;-96
2023/09/01 11:15:14;;;;;;;8.35;7.57;;;;;;;17.47;100.00;101066.06;4919701;29;20028;-96
2023/09/01 11:17:48;;;;;;;7.43;6.82;;;;;;;17.36;100.00;101068.16;4954374;29;20099;-96
2023/09/01 11:20:19;;;;;;;6.78;6.15;;;;;;;17.68;100.00;101096.31;4974403;28;20071;-96
2023/09/01 11:22:44;;;;;;;5.93;5.43;;;;;;;17.34;100.00;101060.34;4974878;28;20023;-96